FEBRUARY 21, 2018

 

METAR SMJP 210100Z VRB01KT 9999 SCT025 23/22 Q1014 NOSIG=